Time;durP1;ratioP1;P1;durP2;ratioP2;P2;SDS_P1;SDS_P2;PMS_P1;PMS_P2;Temp;Humidity;BMP_temperature;BMP_pressure;BME280_temperature;BME280_humidity;BME280_pressure;Samples;Min_cycle;Max_cycle;Signal;HPM_P1;HPM_P2
2022/03/25 00:00:10;;;;;;;64.43;33.70;;;13.40;45.60;;;;;;5047185;28;20208;-86
2022/03/25 00:02:39;;;;;;;57.93;32.27;;;13.40;45.50;;;;;;5054702;28;20201;-88
2022/03/25 00:05:08;;;;;;;57.00;32.93;;;13.40;45.30;;;;;;5048684;28;20231;-88
2022/03/25 00:07:35;;;;;;;60.57;33.10;;;13.40;45.40;;;;;;5053511;28;20644;-87
2022/03/25 00:10:07;;;;;;;57.43;33.63;;;13.30;45.50;;;;;;5054420;28;20292;-88
2022/03/25 00:12:35;;;;;;;58.13;33.60;;;13.30;46.10;;;;;;5054543;28;20216;-86
2022/03/25 00:15:02;;;;;;;58.13;33.67;;;13.30;46.60;;;;;;5056627;28;20193;-87
2022/03/25 00:17:30;;;;;;;60.63;33.87;;;13.20;45.90;;;;;;5054934;28;21006;-87
2022/03/25 00:20:04;;;;;;;65.20;35.33;;;13.20;46.30;;;;;;5053709;28;20228;-88
2022/03/25 00:22:32;;;;;;;61.53;32.63;;;13.20;46.80;;;;;;5035505;28;20213;-88
2022/03/25 00:25:04;;;;;;;56.03;33.33;;;13.20;46.50;;;;;;5055852;28;20212;-88
2022/03/25 00:27:32;;;;;;;57.27;33.93;;;13.10;46.20;;;;;;5061055;28;20218;-89
2022/03/25 00:30:02;;;;;;;65.37;35.93;;;13.00;46.30;;;;;;5059036;28;20208;-89
2022/03/25 00:32:29;;;;;;;61.30;36.87;;;13.00;47.00;;;;;;5058326;28;20223;-88
2022/03/25 00:34:56;;;;;;;64.87;35.57;;;13.00;46.70;;;;;;5020203;28;20306;-89
2022/03/25 00:37:31;;;;;;;62.50;35.10;;;12.90;46.90;;;;;;5058130;28;20218;-89
2022/03/25 00:39:58;;;;;;;64.30;36.07;;;12.90;47.70;;;;;;5056840;28;20200;-89
2022/03/25 00:42:27;;;;;;;62.97;35.80;;;12.90;47.30;;;;;;5057615;28;20200;-90
2022/03/25 00:44:55;;;;;;;63.97;37.43;;;12.80;47.60;;;;;;5057067;28;20250;-89
2022/03/25 00:47:23;;;;;;;68.43;36.87;;;12.80;47.50;;;;;;5053904;28;20250;-88
2022/03/25 00:49:51;;;;;;;64.30;37.27;;;12.80;47.60;;;;;;5053407;28;20295;-88
2022/03/25 00:52:19;;;;;;;69.87;37.53;;;12.80;47.60;;;;;;5057419;28;20242;-90
2022/03/25 00:54:50;;;;;;;66.47;38.87;;;12.70;47.10;;;;;;5043274;28;20200;-89
2022/03/25 00:57:19;;;;;;;68.10;39.07;;;12.70;47.40;;;;;;5054471;28;20282;-88
2022/03/25 00:59:47;;;;;;;68.53;39.27;;;12.70;47.80;;;;;;5054885;28;20740;-91
2022/03/25 01:02:15;;;;;;;76.33;38.63;;;12.70;48.20;;;;;;5052590;28;20207;-89
2022/03/25 01:04:43;;;;;;;70.37;38.80;;;12.70;48.20;;;;;;5045922;28;20204;-91
2022/03/25 01:07:10;;;;;;;69.77;38.97;;;12.70;48.40;;;;;;5052670;28;20188;-87
2022/03/25 01:09:37;;;;;;;67.73;37.17;;;12.60;48.30;;;;;;5053671;28;20242;-89
2022/03/25 01:12:08;;;;;;;76.27;40.67;;;12.60;48.10;;;;;;5054728;28;20259;-89
2022/03/25 01:14:36;;;;;;;76.07;39.50;;;12.60;48.40;;;;;;5053269;28;20223;-89
2022/03/25 01:17:03;;;;;;;72.50;37.93;;;12.60;48.40;;;;;;5052387;28;20234;-88
2022/03/25 01:19:31;;;;;;;73.23;38.23;;;12.60;48.40;;;;;;5054212;28;20209;-91
2022/03/25 01:21:59;;;;;;;74.63;38.73;;;12.60;48.30;;;;;;5054850;28;20200;-89
2022/03/25 01:24:26;;;;;;;67.97;36.20;;;12.50;48.50;;;;;;5053589;28;20212;-88
2022/03/25 01:26:53;;;;;;;70.53;39.03;;;12.50;48.30;;;;;;5052963;28;20290;-88
2022/03/25 01:29:22;;;;;;;74.53;39.33;;;12.50;48.10;;;;;;5055042;28;20211;-88
2022/03/25 01:31:51;;;;;;;71.27;38.23;;;12.50;48.10;;;;;;5054027;28;20232;-90
2022/03/25 01:34:19;;;;;;;74.87;39.17;;;12.50;48.30;;;;;;5051916;28;20622;-90
2022/03/25 01:36:49;;;;;;;62.87;36.73;;;12.50;48.30;;;;;;5052864;28;20718;-88
2022/03/25 01:39:16;;;;;;;69.53;37.80;;;12.40;48.40;;;;;;5034611;28;20639;-88
2022/03/25 01:41:48;;;;;;;66.63;38.07;;;12.40;48.60;;;;;;5049183;28;20245;-89
2022/03/25 01:44:15;;;;;;;70.87;39.10;;;12.40;48.30;;;;;;5052954;28;20295;-87
2022/03/25 01:46:44;;;;;;;70.23;38.93;;;12.40;47.90;;;;;;5050088;28;20262;-89
2022/03/25 01:49:13;;;;;;;73.07;38.43;;;12.40;47.70;;;;;;5032935;28;20205;-88
2022/03/25 01:51:40;;;;;;;67.40;37.90;;;12.30;48.00;;;;;;5056958;28;20234;-89
2022/03/25 01:54:17;;;;;;;66.00;38.13;;;12.40;48.70;;;;;;5060724;28;20207;-89
2022/03/25 01:56:44;;;;;;;69.23;38.17;;;12.30;49.10;;;;;;5053343;28;20235;-90
2022/03/25 01:59:18;;;;;;;63.17;36.73;;;12.20;48.90;;;;;;5054935;28;20238;-90
2022/03/25 02:01:51;;;;;;;63.77;37.80;;;12.20;49.30;;;;;;5055189;28;20226;-88
2022/03/25 02:04:19;;;;;;;74.97;40.47;;;12.20;49.40;;;;;;5059481;28;20215;-87
2022/03/25 02:06:48;;;;;;;68.13;36.50;;;12.10;49.20;;;;;;5061027;28;20240;-90
2022/03/25 02:09:15;;;;;;;68.90;38.60;;;12.10;48.80;;;;;;5062567;28;20204;-89
2022/03/25 02:11:44;;;;;;;60.27;36.03;;;12.00;48.40;;;;;;5051644;28;20259;-90
2022/03/25 02:14:15;;;;;;;69.93;39.30;;;12.00;48.50;;;;;;5062884;28;20676;-89
2022/03/25 02:16:45;;;;;;;75.17;38.40;;;12.00;48.90;;;;;;5046764;28;20214;-89
2022/03/25 02:21:58;;;;;;;79.97;39.73;;;11.90;49.20;;;;;;5048878;28;20304;-89
2022/03/25 02:24:26;;;;;;;68.57;38.63;;;11.90;49.00;;;;;;5059849;28;20204;-89
2022/03/25 02:26:53;;;;;;;70.07;38.50;;;11.90;49.10;;;;;;5056285;28;20194;-90
2022/03/25 02:29:20;;;;;;;67.60;39.03;;;11.80;49.20;;;;;;5057373;28;20307;-89
2022/03/25 02:31:48;;;;;;;68.40;36.47;;;11.90;49.70;;;;;;5056527;28;20238;-89
2022/03/25 02:34:14;;;;;;;75.00;39.87;;;11.80;49.20;;;;;;5057336;28;20238;-89
2022/03/25 02:36:43;;;;;;;69.00;38.77;;;11.80;49.10;;;;;;5055545;28;20243;-90
2022/03/25 02:39:14;;;;;;;69.33;37.40;;;11.80;49.60;;;;;;5037460;28;20629;-89
2022/03/25 02:41:44;;;;;;;72.13;39.37;;;11.80;50.00;;;;;;5055126;28;20273;-89
2022/03/25 02:44:14;;;;;;;73.10;38.70;;;11.80;50.00;;;;;;5054904;28;20207;-89
2022/03/25 02:46:41;;;;;;;68.93;38.37;;;11.70;49.70;;;;;;5063825;28;20238;-90
2022/03/25 02:49:11;;;;;;;74.10;39.77;;;11.70;49.60;;;;;;5050323;28;20637;-90
2022/03/25 02:51:38;;;;;;;75.40;38.27;;;11.70;49.60;;;;;;5059016;28;20312;-89
2022/03/25 02:54:05;;;;;;;76.17;40.80;;;11.60;49.00;;;;;;5054845;28;20325;-89
2022/03/25 02:56:34;;;;;;;73.57;40.03;;;11.60;49.00;;;;;;5056035;28;20210;-89
2022/03/25 02:59:02;;;;;;;74.90;40.77;;;11.60;49.40;;;;;;5056246;28;20192;-89
2022/03/25 03:01:31;;;;;;;86.93;42.23;;;11.60;49.30;;;;;;5054488;28;21036;-89
2022/03/25 03:03:59;;;;;;;76.33;39.83;;;11.60;48.90;;;;;;5054265;28;20256;-89
2022/03/25 03:06:26;;;;;;;73.13;39.90;;;11.60;49.00;;;;;;5055468;28;20239;-89
2022/03/25 03:08:53;;;;;;;65.13;37.70;;;11.60;49.70;;;;;;5058015;28;20213;-92
2022/03/25 03:11:21;;;;;;;67.83;38.63;;;11.50;49.90;;;;;;5054809;28;20273;-90
2022/03/25 03:13:49;;;;;;;69.77;39.27;;;11.50;50.00;;;;;;5055404;28;20205;-90
2022/03/25 03:16:17;;;;;;;67.87;39.20;;;11.50;50.00;;;;;;5057998;28;20265;-89
2022/03/25 03:18:45;;;;;;;68.33;37.73;;;11.50;50.00;;;;;;5057990;28;20264;-89
2022/03/25 03:21:14;;;;;;;75.47;39.33;;;11.50;50.40;;;;;;5039283;28;20198;-91
2022/03/25 03:23:42;;;;;;;67.20;37.00;;;11.40;50.50;;;;;;5059391;28;20206;-90
2022/03/25 03:26:09;;;;;;;69.47;37.63;;;11.40;50.60;;;;;;5057340;28;20212;-91
2022/03/25 03:28:36;;;;;;;71.90;39.13;;;11.40;50.00;;;;;;5058363;28;20248;-89
2022/03/25 03:31:09;;;;;;;72.17;39.80;;;11.40;50.10;;;;;;5057331;28;20233;-90
2022/03/25 03:33:36;;;;;;;75.53;37.80;;;11.30;50.40;;;;;;5058277;28;20277;-88
2022/03/25 03:36:10;;;;;;;69.87;37.80;;;11.30;50.40;;;;;;5056935;28;20268;-89
2022/03/25 03:38:37;;;;;;;73.10;39.10;;;11.30;50.90;;;;;;5064490;28;20205;-89
2022/03/25 03:41:08;;;;;;;74.53;38.70;;;11.30;50.40;;;;;;5037828;28;20270;-89
2022/03/25 03:43:35;;;;;;;73.87;37.57;;;11.20;50.60;;;;;;5056604;28;20211;-89
2022/03/25 03:46:03;;;;;;;75.40;39.93;;;11.20;50.70;;;;;;5054020;28;20259;-90
2022/03/25 03:48:40;;;;;;;77.43;39.97;;;11.20;50.80;;;;;;5056705;28;20233;-90
2022/03/25 03:51:11;;;;;;;76.67;39.33;;;11.10;51.40;;;;;;5040193;28;20249;-90
2022/03/25 03:53:38;;;;;;;74.70;38.97;;;11.10;51.10;;;;;;5056608;28;20234;-89
2022/03/25 03:56:06;;;;;;;69.87;38.43;;;11.10;51.20;;;;;;5058328;28;20205;-91
2022/03/25 03:58:33;;;;;;;71.57;37.93;;;11.10;51.30;;;;;;5057551;28;20214;-89
2022/03/25 04:01:00;;;;;;;70.40;39.57;;;11.10;51.50;;;;;;5057634;28;20309;-89
2022/03/25 04:03:29;;;;;;;77.40;40.77;;;11.00;51.40;;;;;;5057928;28;20223;-88
2022/03/25 04:05:58;;;;;;;73.83;38.60;;;11.00;51.40;;;;;;5052010;28;20211;-89
2022/03/25 04:08:25;;;;;;;76.00;39.07;;;11.00;51.40;;;;;;5052334;28;20200;-89
2022/03/25 04:10:55;;;;;;;80.07;39.53;;;10.90;51.10;;;;;;5052538;28;20210;-89
2022/03/25 04:13:22;;;;;;;69.23;37.00;;;10.90;51.20;;;;;;5055279;28;20303;-89
2022/03/25 04:15:50;;;;;;;79.03;39.60;;;10.90;51.10;;;;;;5052207;28;20203;-89
2022/03/25 04:18:19;;;;;;;80.27;40.70;;;10.90;51.30;;;;;;5053842;28;20281;-90
2022/03/25 04:20:54;;;;;;;74.63;38.27;;;10.90;51.40;;;;;;5051119;28;20290;-89
2022/03/25 04:23:25;;;;;;;67.67;37.00;;;10.80;51.30;;;;;;5051199;28;20204;-90
2022/03/25 04:25:52;;;;;;;69.57;38.07;;;10.90;51.50;;;;;;5055028;28;20198;-91
2022/03/25 04:28:21;;;;;;;75.33;38.27;;;10.80;51.30;;;;;;5058577;28;20206;-89
2022/03/25 04:30:50;;;;;;;74.93;38.63;;;10.80;51.30;;;;;;5054901;28;20263;-90
2022/03/25 04:33:23;;;;;;;72.93;38.47;;;10.80;51.30;;;;;;5057437;28;20911;-89
2022/03/25 04:35:51;;;;;;;75.20;37.63;;;10.80;51.50;;;;;;5056053;28;20280;-90
2022/03/25 04:38:19;;;;;;;77.43;36.93;;;10.80;51.60;;;;;;5059197;28;20260;-91
2022/03/25 04:40:50;;;;;;;73.53;37.63;;;10.70;51.60;;;;;;5055819;28;20203;-90
2022/03/25 04:43:20;;;;;;;66.37;35.50;;;10.70;51.80;;;;;;5061101;28;20253;-91
2022/03/25 04:45:49;;;;;;;71.30;37.20;;;10.60;51.50;;;;;;5060986;28;20284;-89
2022/03/25 04:48:16;;;;;;;72.37;36.30;;;10.60;51.30;;;;;;5058752;28;20211;-88
2022/03/25 04:50:44;;;;;;;65.33;36.27;;;10.60;51.20;;;;;;5052858;28;20211;-89
2022/03/25 04:53:11;;;;;;;66.13;36.47;;;10.60;51.30;;;;;;5051446;28;20248;-88
2022/03/25 04:55:39;;;;;;;76.10;38.77;;;10.50;51.40;;;;;;5050841;28;20290;-88
2022/03/25 04:58:08;;;;;;;69.70;36.60;;;10.50;51.60;;;;;;5049798;28;20607;-88
2022/03/25 05:00:37;;;;;;;59.63;34.37;;;10.50;51.70;;;;;;5054608;28;20210;-90
2022/03/25 05:03:04;;;;;;;72.90;36.73;;;10.50;51.40;;;;;;5058760;28;20843;-88
2022/03/25 05:05:33;;;;;;;64.37;34.70;;;10.40;51.50;;;;;;5053197;28;20229;-89
2022/03/25 05:08:01;;;;;;;65.00;35.13;;;10.40;51.90;;;;;;5041433;28;20209;-89
2022/03/25 05:10:30;;;;;;;76.10;36.43;;;10.40;51.60;;;;;;5048523;28;20207;-89
2022/03/25 05:12:57;;;;;;;72.17;37.23;;;10.40;51.50;;;;;;5052271;28;20238;-90
2022/03/25 05:15:26;;;;;;;69.73;35.97;;;10.40;52.20;;;;;;5054556;28;20201;-91
2022/03/25 05:17:53;;;;;;;66.37;34.73;;;10.30;51.90;;;;;;5055232;28;20210;-88
2022/03/25 05:20:24;;;;;;;65.67;35.27;;;10.30;52.00;;;;;;5053707;28;20199;-89
2022/03/25 05:22:51;;;;;;;68.37;36.73;;;10.20;52.10;;;;;;5053590;28;20634;-91
2022/03/25 05:25:20;;;;;;;67.63;36.50;;;10.20;52.10;;;;;;5055717;28;20261;-90
2022/03/25 05:27:52;;;;;;;65.17;34.40;;;10.20;52.30;;;;;;5055041;28;20661;-89
2022/03/25 05:30:21;;;;;;;65.40;34.87;;;10.20;52.20;;;;;;5052692;28;20202;-90
2022/03/25 05:32:50;;;;;;;69.17;35.80;;;10.10;51.50;;;;;;5054528;28;20232;-90
2022/03/25 05:35:32;;;;;;;64.97;34.70;;;10.10;51.70;;;;;;5057354;28;20221;-91
2022/03/25 05:37:59;;;;;;;66.07;34.33;;;10.10;52.10;;;;;;5061360;28;20297;-90
2022/03/25 05:40:27;;;;;;;71.67;37.03;;;10.10;52.40;;;;;;5053043;28;20233;-90
2022/03/25 05:42:56;;;;;;;70.50;35.90;;;10.00;52.60;;;;;;5050429;28;20206;-90
2022/03/25 05:45:26;;;;;;;69.23;35.37;;;10.00;52.80;;;;;;5048646;28;20237;-90
2022/03/25 05:47:55;;;;;;;68.13;35.80;;;9.90;53.60;;;;;;5051497;28;20211;-90
2022/03/25 05:50:22;;;;;;;75.00;35.67;;;9.90;53.80;;;;;;5058252;28;20209;-90
2022/03/25 05:52:50;;;;;;;68.07;36.13;;;9.90;53.80;;;;;;5051629;28;20259;-89
2022/03/25 05:55:18;;;;;;;77.30;37.53;;;9.90;53.60;;;;;;5039336;28;20202;-88
2022/03/25 05:57:45;;;;;;;75.37;38.20;;;9.80;53.40;;;;;;5049995;28;20204;-89
2022/03/25 06:00:14;;;;;;;72.23;37.47;;;9.80;53.90;;;;;;5048625;28;20286;-89
2022/03/25 06:02:42;;;;;;;61.77;34.03;;;9.80;54.40;;;;;;5045457;28;20213;-89
2022/03/25 06:05:11;;;;;;;68.63;35.50;;;9.70;54.40;;;;;;5048880;28;20541;-90
2022/03/25 06:07:40;;;;;;;67.87;35.40;;;9.70;54.50;;;;;;5048040;28;20232;-91
2022/03/25 06:10:13;;;;;;;67.90;35.17;;;9.80;54.00;;;;;;5048718;28;20218;-90
2022/03/25 06:12:40;;;;;;;56.43;32.03;;;9.70;53.60;;;;;;5050281;28;20263;-90
2022/03/25 06:15:09;;;;;;;66.87;35.30;;;9.70;53.90;;;;;;5046015;28;20241;-89
2022/03/25 06:17:43;;;;;;;67.03;35.00;;;9.70;53.00;;;;;;5045003;28;20215;-89
2022/03/25 06:20:13;;;;;;;64.90;34.83;;;9.70;53.40;;;;;;5046361;28;20316;-89
2022/03/25 06:22:40;;;;;;;66.40;34.03;;;9.70;52.90;;;;;;5048545;28;20209;-89
2022/03/25 06:25:09;;;;;;;63.87;34.40;;;9.70;53.00;;;;;;5047185;28;20197;-88
2022/03/25 06:27:36;;;;;;;67.43;36.50;;;9.80;53.60;;;;;;5047059;28;20314;-88
2022/03/25 06:30:03;;;;;;;64.43;34.67;;;9.80;53.40;;;;;;5048676;28;20230;-88
2022/03/25 06:32:30;;;;;;;66.90;34.90;;;9.80;53.70;;;;;;5047082;28;20227;-89
2022/03/25 06:34:57;;;;;;;65.97;34.57;;;9.80;53.70;;;;;;5055675;28;20297;-91
2022/03/25 06:37:26;;;;;;;67.63;35.53;;;9.90;54.00;;;;;;5068099;28;20263;-89
2022/03/25 06:39:55;;;;;;;68.60;35.07;;;9.90;53.80;;;;;;5060024;28;20273;-90
2022/03/25 06:42:23;;;;;;;65.40;34.07;;;9.90;53.80;;;;;;5048494;28;20353;-90
2022/03/25 06:44:50;;;;;;;66.40;36.73;;;9.90;53.80;;;;;;5048027;28;20305;-89
2022/03/25 06:47:17;;;;;;;68.63;36.47;;;10.00;53.50;;;;;;5047815;28;20295;-89
2022/03/25 06:49:44;;;;;;;68.53;35.20;;;10.10;54.00;;;;;;5049389;28;20731;-90
2022/03/25 06:52:12;;;;;;;65.17;35.57;;;10.10;53.60;;;;;;5051264;28;20236;-90
2022/03/25 06:54:41;;;;;;;64.63;35.60;;;10.10;53.40;;;;;;5051765;28;20290;-89
2022/03/25 06:57:11;;;;;;;74.17;35.60;;;10.20;53.70;;;;;;5049602;28;20205;-90
2022/03/25 06:59:39;;;;;;;57.67;31.80;;;10.20;54.00;;;;;;5051093;28;20199;-88
2022/03/25 07:02:08;;;;;;;64.63;34.03;;;10.30;54.30;;;;;;5051002;28;20197;-88
2022/03/25 07:04:36;;;;;;;64.27;33.20;;;10.30;54.50;;;;;;5055169;28;20297;-88
2022/03/25 07:07:05;;;;;;;53.77;30.57;;;10.30;54.30;;;;;;5052312;28;20205;-89
2022/03/25 07:09:33;;;;;;;57.70;31.07;;;10.40;54.10;;;;;;5052908;28;20573;-96
2022/03/25 07:12:02;;;;;;;53.33;29.83;;;10.50;54.00;;;;;;5050400;28;20210;-90
2022/03/25 07:14:29;;;;;;;52.93;29.50;;;10.50;54.40;;;;;;5051590;28;20230;-89
2022/03/25 07:16:56;;;;;;;63.17;31.30;;;10.50;54.70;;;;;;5050485;28;20198;-91
2022/03/25 07:19:25;;;;;;;62.37;31.33;;;10.70;55.00;;;;;;5051123;28;20291;-90
2022/03/25 07:21:52;;;;;;;57.47;29.63;;;10.70;54.70;;;;;;5050903;28;20203;-90
2022/03/25 07:24:20;;;;;;;63.47;31.00;;;10.80;54.80;;;;;;5050750;28;20207;-89
2022/03/25 07:26:48;;;;;;;55.13;29.20;;;10.90;55.00;;;;;;5031065;28;20231;-89
2022/03/25 07:29:16;;;;;;;50.37;28.13;;;11.00;55.20;;;;;;5031116;28;20247;-90
2022/03/25 07:31:43;;;;;;;53.47;27.80;;;11.10;55.20;;;;;;5032324;28;20208;-90
2022/03/25 07:34:10;;;;;;;44.40;24.43;;;11.10;55.00;;;;;;5067142;28;20282;-90
2022/03/25 07:36:37;;;;;;;50.20;27.17;;;11.20;55.00;;;;;;5072003;28;20629;-89
2022/03/25 07:39:05;;;;;;;52.20;26.67;;;11.30;55.10;;;;;;5070103;28;20198;-90
2022/03/25 07:41:32;;;;;;;40.90;24.07;;;11.40;55.00;;;;;;5050784;28;20251;-89
2022/03/25 07:44:00;;;;;;;56.33;27.63;;;11.50;54.50;;;;;;5051159;28;20247;-90
2022/03/25 07:46:29;;;;;;;53.17;26.27;;;11.60;54.30;;;;;;5051455;28;20735;-89
2022/03/25 07:48:56;;;;;;;46.70;25.07;;;11.60;54.00;;;;;;5050661;28;20203;-89
2022/03/25 07:51:23;;;;;;;48.43;24.67;;;11.70;53.90;;;;;;5049245;28;20208;-89
2022/03/25 07:53:50;;;;;;;43.30;24.03;;;11.80;53.50;;;;;;5051102;28;20263;-89
2022/03/25 07:56:17;;;;;;;45.03;25.23;;;11.90;53.40;;;;;;5048578;28;20212;-90
2022/03/25 07:58:45;;;;;;;42.53;23.63;;;12.00;53.50;;;;;;5050626;28;20299;-92
2022/03/25 08:01:12;;;;;;;42.87;23.00;;;12.10;53.90;;;;;;5051580;28;20291;-91
2022/03/25 08:03:42;;;;;;;44.70;23.83;;;12.10;53.00;;;;;;5055444;28;20227;-89
2022/03/25 08:06:12;;;;;;;37.27;22.07;;;12.30;53.00;;;;;;5054486;28;20239;-89
2022/03/25 08:08:39;;;;;;;38.17;21.57;;;12.40;52.80;;;;;;5052034;28;20305;-90
2022/03/25 08:11:08;;;;;;;37.33;21.20;;;12.40;52.50;;;;;;5050085;28;20199;-90
2022/03/25 08:13:35;;;;;;;38.60;22.00;;;12.50;52.50;;;;;;5048237;28;20279;-90
2022/03/25 08:16:02;;;;;;;35.07;20.60;;;12.60;52.30;;;;;;5050478;28;20239;-90
2022/03/25 08:18:30;;;;;;;39.53;21.60;;;12.70;52.20;;;;;;5043526;28;20324;-89
2022/03/25 08:20:59;;;;;;;42.43;21.40;;;12.70;52.00;;;;;;5044381;28;20693;-89
2022/03/25 08:28:59;;;;;;;35.50;19.63;;;13.00;51.70;;;;;;5048772;28;20806;-88
2022/03/25 08:31:28;;;;;;;41.77;20.30;;;13.10;51.60;;;;;;5044642;28;20200;-89
2022/03/25 08:33:56;;;;;;;43.33;20.40;;;13.20;51.40;;;;;;5044652;28;20229;-89
2022/03/25 08:36:24;;;;;;;34.03;18.70;;;13.30;51.30;;;;;;5046882;28;20607;-89
2022/03/25 08:38:54;;;;;;;34.93;18.50;;;13.40;51.10;;;;;;5046328;28;20198;-89
2022/03/25 08:41:21;;;;;;;35.73;17.80;;;13.50;50.80;;;;;;5048734;28;20272;-89
2022/03/25 08:43:50;;;;;;;32.10;16.83;;;13.60;50.80;;;;;;5047936;28;20213;-89
2022/03/25 08:46:20;;;;;;;35.07;18.17;;;13.70;51.30;;;;;;5043125;28;20209;-89
2022/03/25 08:48:48;;;;;;;35.77;18.07;;;13.90;50.70;;;;;;5048539;28;20281;-88
2022/03/25 08:51:15;;;;;;;36.33;17.70;;;14.00;50.60;;;;;;5044697;28;20270;-89
2022/03/25 08:53:44;;;;;;;359.00;64.50;;;14.20;50.40;;;;;;5050181;28;20667;-89
2022/03/25 08:56:12;;;;;;;79.83;21.93;;;14.40;49.90;;;;;;5050327;28;20289;-90
2022/03/25 08:58:39;;;;;;;43.27;19.23;;;14.60;49.60;;;;;;5049578;28;20273;-90
2022/03/25 09:01:06;;;;;;;100.60;24.43;;;14.80;49.20;;;;;;5048951;28;20860;-90
2022/03/25 09:03:33;;;;;;;35.47;17.43;;;15.10;49.20;;;;;;5048458;28;20291;-89
2022/03/25 09:06:00;;;;;;;34.60;16.40;;;15.30;48.80;;;;;;5048838;28;20308;-87
2022/03/25 09:08:27;;;;;;;37.53;16.17;;;15.50;47.70;;;;;;5048659;28;20635;-87
2022/03/25 09:10:57;;;;;;;27.53;15.67;;;15.70;47.50;;;;;;5048179;28;20214;-85
2022/03/25 09:13:24;;;;;;;34.93;16.90;;;16.00;47.40;;;;;;5047008;28;20248;-87
2022/03/25 09:15:52;;;;;;;46.33;19.17;;;16.20;47.70;;;;;;5045499;28;20318;-87
2022/03/25 09:18:19;;;;;;;28.77;14.23;;;16.40;47.00;;;;;;5046929;28;20197;-86
2022/03/25 09:20:46;;;;;;;35.97;15.63;;;16.60;46.20;;;;;;5045474;28;20192;-88
2022/03/25 09:23:13;;;;;;;26.70;14.63;;;16.90;46.40;;;;;;5046850;28;20282;-90
2022/03/25 09:25:40;;;;;;;33.40;14.83;;;17.10;45.80;;;;;;5045611;28;20230;-87
2022/03/25 09:28:09;;;;;;;32.17;13.90;;;17.30;45.20;;;;;;5045579;28;20299;-88
2022/03/25 09:30:37;;;;;;;25.67;13.63;;;17.50;44.70;;;;;;5043342;28;20207;-88
2022/03/25 09:33:07;;;;;;;29.60;14.70;;;17.70;44.80;;;;;;5044431;28;20303;-88
2022/03/25 09:35:36;;;;;;;25.30;12.30;;;17.80;44.50;;;;;;5045012;28;20210;-88
2022/03/25 09:38:04;;;;;;;26.50;12.07;;;18.00;43.40;;;;;;5043636;28;20365;-86
2022/03/25 09:40:32;;;;;;;20.10;11.50;;;18.10;43.10;;;;;;5047054;28;20572;-88
2022/03/25 09:42:59;;;;;;;24.93;11.43;;;18.30;42.50;;;;;;5048282;28;20674;-88
2022/03/25 09:45:30;;;;;;;20.20;10.10;;;18.50;42.40;;;;;;5048493;28;20231;-89
2022/03/25 09:47:57;;;;;;;23.63;11.10;;;18.60;43.00;;;;;;5048036;28;20204;-88
2022/03/25 09:50:26;;;;;;;22.03;11.03;;;18.70;42.40;;;;;;5047714;28;20695;-87
2022/03/25 09:52:54;;;;;;;23.10;12.10;;;18.90;42.10;;;;;;5045016;28;20304;-87
2022/03/25 09:55:22;;;;;;;24.97;12.07;;;19.00;41.30;;;;;;5045486;28;20343;-89
2022/03/25 09:57:50;;;;;;;23.50;10.43;;;19.20;40.70;;;;;;5047801;28;20243;-88
2022/03/25 10:00:18;;;;;;;18.73;9.80;;;19.30;41.90;;;;;;5048984;28;20302;-89
2022/03/25 10:02:47;;;;;;;20.50;10.90;;;19.40;40.80;;;;;;5048721;28;20249;-87
2022/03/25 10:05:17;;;;;;;15.47;8.87;;;19.60;41.70;;;;;;5048074;28;20214;-89
2022/03/25 10:07:48;;;;;;;19.70;10.77;;;19.70;40.50;;;;;;5047730;28;20250;-89
2022/03/25 10:10:17;;;;;;;21.87;10.80;;;19.90;39.50;;;;;;5047899;28;20567;-87
2022/03/25 10:12:46;;;;;;;23.27;12.30;;;20.00;41.30;;;;;;5048367;28;20236;-87
2022/03/25 10:15:16;;;;;;;24.43;12.23;;;20.10;39.50;;;;;;5033705;28;20212;-87
2022/03/25 10:17:50;;;;;;;19.57;10.80;;;20.30;40.30;;;;;;5028362;28;20192;-87
2022/03/25 10:20:17;;;;;;;24.30;11.87;;;20.30;40.00;;;;;;5047964;28;20283;-90
2022/03/25 10:23:06;;;;;;;22.10;10.87;;;20.40;40.80;;;;;;5048941;28;20279;-89
2022/03/25 10:25:42;;;;;;;22.70;10.40;;;20.50;38.00;;;;;;5049461;28;20216;-90
2022/03/25 10:28:26;;;;;;;15.07;8.37;;;20.60;38.90;;;;;;5049214;28;20302;-91
2022/03/25 10:30:55;;;;;;;17.20;9.23;;;20.70;36.30;;;;;;5049132;28;20279;-89
2022/03/25 10:33:30;;;;;;;18.17;9.47;;;20.80;36.70;;;;;;5052975;28;20249;-85
2022/03/25 10:36:04;;;;;;;19.57;10.83;;;20.90;36.60;;;;;;5051522;28;20265;-85
2022/03/25 10:38:43;;;;;;;17.43;9.90;;;20.90;36.20;;;;;;5051310;28;20643;-85
2022/03/25 10:41:11;;;;;;;19.80;10.17;;;21.00;37.10;;;;;;5052314;28;20286;-87
2022/03/25 10:43:52;;;;;;;20.37;10.67;;;21.10;37.30;;;;;;5052495;28;20204;-88
2022/03/25 10:46:33;;;;;;;16.73;9.57;;;21.10;36.20;;;;;;5052771;28;20196;-87
2022/03/25 10:49:05;;;;;;;12.70;8.77;;;21.20;36.50;;;;;;5052257;28;20238;-87
2022/03/25 10:51:33;;;;;;;17.37;9.50;;;21.40;35.10;;;;;;5051670;28;20219;-87
2022/03/25 10:54:02;;;;;;;17.80;9.17;;;21.40;35.30;;;;;;5048236;28;20231;-87
2022/03/25 10:56:30;;;;;;;16.50;9.83;;;21.50;34.20;;;;;;5050220;28;20228;-87
2022/03/25 10:58:58;;;;;;;15.77;8.87;;;21.60;33.90;;;;;;5049262;28;20208;-86
2022/03/25 11:01:25;;;;;;;25.20;11.97;;;21.70;33.00;;;;;;5050989;28;20270;-86
2022/03/25 11:03:53;;;;;;;27.33;11.50;;;21.70;34.10;;;;;;5049659;28;20211;-87
2022/03/25 11:06:21;;;;;;;126.70;20.43;;;21.80;34.40;;;;;;5050724;28;20192;-87
2022/03/25 11:08:48;;;;;;;65.37;19.27;;;21.90;34.30;;;;;;5049965;28;20195;-87
2022/03/25 11:11:18;;;;;;;82.47;23.80;;;22.00;34.80;;;;;;5051159;28;20214;-88
2022/03/25 11:13:48;;;;;;;46.90;18.83;;;22.10;33.10;;;;;;5050218;28;20211;-86
2022/03/25 11:16:18;;;;;;;34.77;12.57;;;22.10;34.00;;;;;;5050580;28;20295;-86
2022/03/25 11:18:47;;;;;;;44.70;15.50;;;22.20;33.00;;;;;;5049749;28;20208;-86
2022/03/25 11:21:16;;;;;;;88.40;22.47;;;22.20;32.00;;;;;;5041675;28;20295;-88
2022/03/25 11:23:48;;;;;;;29.27;12.90;;;22.30;31.50;;;;;;5045695;28;20287;-87
2022/03/25 11:26:19;;;;;;;276.83;57.07;;;22.30;32.10;;;;;;5050175;28;20224;-86
2022/03/25 11:28:46;;;;;;;82.33;22.33;;;22.30;32.40;;;;;;5050202;28;20220;-87
2022/03/25 11:31:13;;;;;;;325.63;59.63;;;22.40;33.00;;;;;;5049663;28;20661;-86
2022/03/25 11:34:09;;;;;;;264.17;54.03;;;22.50;33.70;;;;;;5049467;28;20307;-87
2022/03/25 11:36:40;;;;;;;398.57;74.33;;;22.50;32.70;;;;;;5050048;28;20204;-87
2022/03/25 11:39:24;;;;;;;88.37;25.00;;;22.60;33.20;;;;;;5035376;28;20204;-86
2022/03/25 11:41:53;;;;;;;91.93;26.20;;;22.70;32.60;;;;;;5030578;28;20285;-86
2022/03/25 11:44:25;;;;;;;31.53;17.63;;;22.70;33.00;;;;;;5049432;28;20196;-87
2022/03/25 11:47:17;;;;;;;31.53;17.57;;;22.80;32.60;;;;;;5050306;28;20200;-88
2022/03/25 11:49:44;;;;;;;30.30;18.23;;;22.80;32.50;;;;;;5050266;28;20655;-88
2022/03/25 11:52:29;;;;;;;27.60;17.93;;;22.80;32.50;;;;;;5048756;28;20210;-86
2022/03/25 11:54:59;;;;;;;35.83;20.93;;;22.90;32.40;;;;;;5050272;28;20239;-87
2022/03/25 11:57:28;;;;;;;31.47;19.73;;;22.90;33.30;;;;;;5049512;28;20199;-86
2022/03/25 11:59:56;;;;;;;43.63;20.43;;;23.00;33.20;;;;;;5050462;28;20585;-86
2022/03/25 12:02:29;;;;;;;55.20;24.13;;;23.00;32.60;;;;;;5049631;28;20199;-86
2022/03/25 12:04:57;;;;;;;33.90;20.67;;;23.10;33.50;;;;;;5049092;28;20258;-86
2022/03/25 12:07:24;;;;;;;32.53;20.40;;;23.10;33.30;;;;;;5047737;28;20200;-86
2022/03/25 12:09:51;;;;;;;34.77;20.47;;;23.20;32.70;;;;;;5049726;28;20199;-85
2022/03/25 12:12:20;;;;;;;30.53;20.20;;;23.20;32.30;;;;;;5049547;28;20738;-87
2022/03/25 12:15:07;;;;;;;30.73;21.43;;;23.30;32.20;;;;;;5050498;28;20277;-86
2022/03/25 12:17:34;;;;;;;35.67;22.23;;;23.40;32.50;;;;;;5049887;28;20211;-86
2022/03/25 12:20:02;;;;;;;52.33;23.97;;;23.40;32.40;;;;;;5049628;28;20639;-86
2022/03/25 12:22:34;;;;;;;41.23;23.30;;;23.50;33.10;;;;;;5049281;28;20204;-86
2022/03/25 12:25:08;;;;;;;65.13;28.77;;;23.60;33.10;;;;;;5049266;28;20235;-86
2022/03/25 12:27:37;;;;;;;122.27;37.17;;;23.70;33.20;;;;;;5068138;28;20283;-87
2022/03/25 12:30:05;;;;;;;68.40;33.13;;;23.80;34.20;;;;;;5049847;28;20234;-88
2022/03/25 12:32:35;;;;;;;55.93;32.63;;;23.90;33.60;;;;;;5049642;28;20215;-86
2022/03/25 12:35:04;;;;;;;70.83;31.63;;;23.90;34.60;;;;;;5049880;28;20216;-88
2022/03/25 12:37:48;;;;;;;112.00;37.40;;;24.00;35.40;;;;;;5049609;28;20206;-87
2022/03/25 12:40:17;;;;;;;102.53;37.43;;;24.00;35.50;;;;;;5051060;28;20204;-89
2022/03/25 12:42:49;;;;;;;48.23;30.97;;;24.10;35.60;;;;;;5049383;28;20635;-85
2022/03/25 12:45:16;;;;;;;44.03;30.70;;;24.20;35.60;;;;;;5049354;28;20564;-86